sensor_id;sensor_type;location;lat;lon;timestamp;P1;durP1;ratioP1;P2;durP2;ratioP2
66966;SDS011;53900;51.468;-2.586;2023-02-27T00:01:54;8.57;;;2.38;;
66966;SDS011;53900;51.468;-2.586;2023-02-27T00:04:19;6.50;;;2.08;;
66966;SDS011;53900;51.468;-2.586;2023-02-27T00:06:44;6.63;;;2.05;;
66966;SDS011;53900;51.468;-2.586;2023-02-27T00:09:09;10.30;;;2.70;;
66966;SDS011;53900;51.468;-2.586;2023-02-27T00:11:35;6.67;;;2.17;;
66966;SDS011;53900;51.468;-2.586;2023-02-27T00:14:02;6.00;;;2.13;;
66966;SDS011;53900;51.468;-2.586;2023-02-27T00:16:27;4.33;;;2.00;;
66966;SDS011;53900;51.468;-2.586;2023-02-27T00:18:52;7.80;;;1.90;;
66966;SDS011;53900;51.468;-2.586;2023-02-27T00:21:18;7.70;;;1.87;;
66966;SDS011;53900;51.468;-2.586;2023-02-27T00:23:43;4.13;;;2.10;;
66966;SDS011;53900;51.468;-2.586;2023-02-27T00:26:08;5.47;;;2.60;;
66966;SDS011;53900;51.468;-2.586;2023-02-27T00:28:33;11.03;;;2.20;;
66966;SDS011;53900;51.468;-2.586;2023-02-27T00:30:59;5.70;;;2.20;;
66966;SDS011;53900;51.468;-2.586;2023-02-27T00:33:24;7.07;;;1.87;;
66966;SDS011;53900;51.468;-2.586;2023-02-27T00:35:56;6.37;;;2.00;;
66966;SDS011;53900;51.468;-2.586;2023-02-27T00:38:22;6.43;;;2.13;;
66966;SDS011;53900;51.468;-2.586;2023-02-27T00:40:47;4.00;;;2.17;;
66966;SDS011;53900;51.468;-2.586;2023-02-27T00:43:12;10.47;;;2.20;;
66966;SDS011;53900;51.468;-2.586;2023-02-27T00:45:37;5.20;;;2.17;;
66966;SDS011;53900;51.468;-2.586;2023-02-27T00:48:02;5.20;;;2.17;;
66966;SDS011;53900;51.468;-2.586;2023-02-27T00:50:28;9.03;;;2.43;;
66966;SDS011;53900;51.468;-2.586;2023-02-27T00:52:53;6.83;;;2.40;;
66966;SDS011;53900;51.468;-2.586;2023-02-27T00:55:18;5.07;;;2.00;;
66966;SDS011;53900;51.468;-2.586;2023-02-27T00:57:43;7.07;;;2.23;;
66966;SDS011;53900;51.468;-2.586;2023-02-27T01:00:09;4.17;;;2.17;;
66966;SDS011;53900;51.468;-2.586;2023-02-27T01:02:34;6.17;;;2.10;;
66966;SDS011;53900;51.468;-2.586;2023-02-27T01:04:59;4.33;;;2.33;;
66966;SDS011;53900;51.468;-2.586;2023-02-27T01:07:24;6.10;;;2.80;;
66966;SDS011;53900;51.468;-2.586;2023-02-27T01:09:50;6.37;;;1.97;;
66966;SDS011;53900;51.468;-2.586;2023-02-27T01:12:15;6.80;;;2.43;;
66966;SDS011;53900;51.468;-2.586;2023-02-27T01:14:40;8.97;;;2.40;;
66966;SDS011;53900;51.468;-2.586;2023-02-27T01:17:07;5.70;;;2.20;;
66966;SDS011;53900;51.468;-2.586;2023-02-27T01:19:32;6.70;;;2.60;;
66966;SDS011;53900;51.468;-2.586;2023-02-27T01:21:58;8.77;;;2.67;;
66966;SDS011;53900;51.468;-2.586;2023-02-27T01:24:23;10.73;;;2.77;;
66966;SDS011;53900;51.468;-2.586;2023-02-27T01:26:48;6.40;;;2.50;;
66966;SDS011;53900;51.468;-2.586;2023-02-27T01:29:16;7.40;;;2.50;;
66966;SDS011;53900;51.468;-2.586;2023-02-27T01:31:41;6.57;;;2.90;;
66966;SDS011;53900;51.468;-2.586;2023-02-27T01:34:06;11.83;;;2.50;;
66966;SDS011;53900;51.468;-2.586;2023-02-27T01:36:32;5.83;;;2.50;;
66966;SDS011;53900;51.468;-2.586;2023-02-27T01:38:57;6.63;;;2.60;;
66966;SDS011;53900;51.468;-2.586;2023-02-27T01:41:22;11.13;;;2.80;;
66966;SDS011;53900;51.468;-2.586;2023-02-27T01:43:55;9.93;;;2.63;;
66966;SDS011;53900;51.468;-2.586;2023-02-27T01:46:20;9.57;;;2.43;;
66966;SDS011;53900;51.468;-2.586;2023-02-27T01:48:46;5.80;;;2.30;;
66966;SDS011;53900;51.468;-2.586;2023-02-27T01:51:13;6.47;;;2.30;;
66966;SDS011;53900;51.468;-2.586;2023-02-27T01:53:40;7.67;;;2.43;;
66966;SDS011;53900;51.468;-2.586;2023-02-27T01:56:08;7.03;;;2.23;;
66966;SDS011;53900;51.468;-2.586;2023-02-27T01:58:34;10.83;;;2.70;;
66966;SDS011;53900;51.468;-2.586;2023-02-27T02:00:59;5.97;;;2.03;;
66966;SDS011;53900;51.468;-2.586;2023-02-27T02:06:08;11.57;;;2.13;;
66966;SDS011;53900;51.468;-2.586;2023-02-27T02:08:39;7.40;;;2.97;;
66966;SDS011;53900;51.468;-2.586;2023-02-27T02:11:05;7.60;;;2.30;;
66966;SDS011;53900;51.468;-2.586;2023-02-27T02:13:31;10.40;;;2.50;;
66966;SDS011;53900;51.468;-2.586;2023-02-27T02:18:34;7.13;;;2.53;;
66966;SDS011;53900;51.468;-2.586;2023-02-27T02:21:19;9.40;;;2.17;;
66966;SDS011;53900;51.468;-2.586;2023-02-27T02:26:43;9.00;;;2.27;;
66966;SDS011;53900;51.468;-2.586;2023-02-27T02:52:52;5.77;;;2.60;;
66966;SDS011;53900;51.468;-2.586;2023-02-27T02:55:34;8.27;;;2.17;;
66966;SDS011;53900;51.468;-2.586;2023-02-27T02:58:35;13.17;;;2.83;;
66966;SDS011;53900;51.468;-2.586;2023-02-27T03:01:01;6.00;;;2.30;;
66966;SDS011;53900;51.468;-2.586;2023-02-27T03:03:29;7.67;;;2.40;;
66966;SDS011;53900;51.468;-2.586;2023-02-27T03:06:18;11.33;;;2.70;;
66966;SDS011;53900;51.468;-2.586;2023-02-27T03:08:43;9.77;;;2.40;;
66966;SDS011;53900;51.468;-2.586;2023-02-27T03:11:10;7.67;;;2.50;;
66966;SDS011;53900;51.468;-2.586;2023-02-27T03:13:36;9.47;;;2.87;;
66966;SDS011;53900;51.468;-2.586;2023-02-27T03:16:05;6.10;;;2.50;;
66966;SDS011;53900;51.468;-2.586;2023-02-27T03:18:34;7.45;;;2.47;;
66966;SDS011;53900;51.468;-2.586;2023-02-27T03:21:02;10.10;;;2.90;;
66966;SDS011;53900;51.468;-2.586;2023-02-27T03:23:33;5.70;;;2.70;;
66966;SDS011;53900;51.468;-2.586;2023-02-27T03:25:59;10.37;;;2.97;;
66966;SDS011;53900;51.468;-2.586;2023-02-27T03:28:26;4.20;;;2.50;;
66966;SDS011;53900;51.468;-2.586;2023-02-27T03:30:57;11.47;;;3.03;;
66966;SDS011;53900;51.468;-2.586;2023-02-27T03:33:36;9.57;;;2.93;;
66966;SDS011;53900;51.468;-2.586;2023-02-27T03:38:54;7.00;;;2.70;;
66966;SDS011;53900;51.468;-2.586;2023-02-27T03:41:19;5.47;;;2.67;;
66966;SDS011;53900;51.468;-2.586;2023-02-27T03:46:16;9.77;;;3.00;;
66966;SDS011;53900;51.468;-2.586;2023-02-27T03:48:42;7.40;;;3.00;;
66966;SDS011;53900;51.468;-2.586;2023-02-27T03:51:09;5.47;;;2.50;;
66966;SDS011;53900;51.468;-2.586;2023-02-27T03:53:36;7.20;;;2.83;;
66966;SDS011;53900;51.468;-2.586;2023-02-27T03:56:05;7.40;;;3.03;;
66966;SDS011;53900;51.468;-2.586;2023-02-27T03:58:32;13.47;;;3.33;;
66966;SDS011;53900;51.468;-2.586;2023-02-27T04:00:58;8.27;;;2.90;;
66966;SDS011;53900;51.468;-2.586;2023-02-27T04:03:23;9.93;;;2.67;;
66966;SDS011;53900;51.468;-2.586;2023-02-27T04:05:49;11.07;;;3.10;;
66966;SDS011;53900;51.468;-2.586;2023-02-27T04:10:53;9.20;;;3.00;;
66966;SDS011;53900;51.468;-2.586;2023-02-27T04:20:53;8.10;;;3.20;;
66966;SDS011;53900;51.468;-2.586;2023-02-27T04:23:22;7.27;;;2.83;;
66966;SDS011;53900;51.468;-2.586;2023-02-27T04:31:04;11.53;;;2.63;;
66966;SDS011;53900;51.468;-2.586;2023-02-27T04:33:42;15.27;;;3.33;;
66966;SDS011;53900;51.468;-2.586;2023-02-27T04:36:15;9.53;;;2.90;;
66966;SDS011;53900;51.468;-2.586;2023-02-27T04:38:43;10.33;;;2.90;;
66966;SDS011;53900;51.468;-2.586;2023-02-27T04:43:38;10.53;;;3.33;;
66966;SDS011;53900;51.468;-2.586;2023-02-27T04:46:05;11.07;;;3.43;;
66966;SDS011;53900;51.468;-2.586;2023-02-27T04:48:33;13.40;;;3.13;;
66966;SDS011;53900;51.468;-2.586;2023-02-27T04:51:11;8.43;;;3.37;;
66966;SDS011;53900;51.468;-2.586;2023-02-27T04:56:03;9.93;;;2.93;;
66966;SDS011;53900;51.468;-2.586;2023-02-27T04:58:33;11.60;;;3.47;;
66966;SDS011;53900;51.468;-2.586;2023-02-27T05:01:02;5.93;;;3.33;;
66966;SDS011;53900;51.468;-2.586;2023-02-27T05:03:33;8.70;;;3.20;;
66966;SDS011;53900;51.468;-2.586;2023-02-27T05:05:59;9.63;;;3.43;;
66966;SDS011;53900;51.468;-2.586;2023-02-27T05:08:45;9.40;;;3.70;;
66966;SDS011;53900;51.468;-2.586;2023-02-27T05:11:35;7.63;;;3.70;;
66966;SDS011;53900;51.468;-2.586;2023-02-27T05:14:03;9.27;;;3.23;;
66966;SDS011;53900;51.468;-2.586;2023-02-27T05:16:35;9.97;;;3.20;;
66966;SDS011;53900;51.468;-2.586;2023-02-27T05:19:02;10.33;;;3.67;;
66966;SDS011;53900;51.468;-2.586;2023-02-27T05:21:29;11.93;;;3.60;;
66966;SDS011;53900;51.468;-2.586;2023-02-27T05:26:40;8.83;;;3.47;;
66966;SDS011;53900;51.468;-2.586;2023-02-27T05:29:16;9.90;;;3.60;;
66966;SDS011;53900;51.468;-2.586;2023-02-27T05:31:48;14.97;;;4.60;;
66966;SDS011;53900;51.468;-2.586;2023-02-27T05:34:17;10.47;;;4.13;;
66966;SDS011;53900;51.468;-2.586;2023-02-27T05:36:47;11.30;;;3.77;;
66966;SDS011;53900;51.468;-2.586;2023-02-27T05:39:16;8.07;;;3.25;;
66966;SDS011;53900;51.468;-2.586;2023-02-27T05:41:45;12.50;;;4.10;;
66966;SDS011;53900;51.468;-2.586;2023-02-27T05:44:15;11.60;;;3.83;;
66966;SDS011;53900;51.468;-2.586;2023-02-27T05:46:43;13.50;;;4.03;;
66966;SDS011;53900;51.468;-2.586;2023-02-27T05:49:19;9.53;;;3.63;;
66966;SDS011;53900;51.468;-2.586;2023-02-27T05:51:48;10.63;;;3.93;;
66966;SDS011;53900;51.468;-2.586;2023-02-27T05:54:21;14.07;;;4.30;;
66966;SDS011;53900;51.468;-2.586;2023-02-27T05:56:48;12.23;;;3.70;;
66966;SDS011;53900;51.468;-2.586;2023-02-27T06:01:52;12.17;;;4.17;;
66966;SDS011;53900;51.468;-2.586;2023-02-27T06:04:17;13.43;;;3.97;;
66966;SDS011;53900;51.468;-2.586;2023-02-27T06:06:43;8.83;;;3.60;;
66966;SDS011;53900;51.468;-2.586;2023-02-27T06:09:08;7.00;;;3.73;;
66966;SDS011;53900;51.468;-2.586;2023-02-27T06:11:33;11.00;;;3.70;;
66966;SDS011;53900;51.468;-2.586;2023-02-27T06:13:58;15.27;;;4.10;;
66966;SDS011;53900;51.468;-2.586;2023-02-27T06:16:24;12.87;;;4.40;;
66966;SDS011;53900;51.468;-2.586;2023-02-27T06:18:49;12.30;;;3.93;;
66966;SDS011;53900;51.468;-2.586;2023-02-27T06:21:14;15.13;;;4.37;;
66966;SDS011;53900;51.468;-2.586;2023-02-27T06:23:39;12.07;;;4.13;;
66966;SDS011;53900;51.468;-2.586;2023-02-27T06:26:04;13.77;;;4.20;;
66966;SDS011;53900;51.468;-2.586;2023-02-27T06:28:30;10.10;;;3.73;;
66966;SDS011;53900;51.468;-2.586;2023-02-27T06:30:55;7.43;;;3.77;;
66966;SDS011;53900;51.468;-2.586;2023-02-27T06:33:21;8.87;;;4.07;;
66966;SDS011;53900;51.468;-2.586;2023-02-27T06:35:47;8.97;;;4.03;;
66966;SDS011;53900;51.468;-2.586;2023-02-27T06:38:12;8.83;;;4.37;;
66966;SDS011;53900;51.468;-2.586;2023-02-27T06:40:37;17.57;;;4.87;;
66966;SDS011;53900;51.468;-2.586;2023-02-27T06:43:02;11.97;;;4.50;;
66966;SDS011;53900;51.468;-2.586;2023-02-27T06:45:28;14.87;;;4.57;;
66966;SDS011;53900;51.468;-2.586;2023-02-27T06:47:53;12.97;;;4.60;;
66966;SDS011;53900;51.468;-2.586;2023-02-27T06:50:18;12.83;;;4.40;;
66966;SDS011;53900;51.468;-2.586;2023-02-27T06:52:43;12.13;;;4.67;;
66966;SDS011;53900;51.468;-2.586;2023-02-27T06:55:09;10.83;;;4.20;;
66966;SDS011;53900;51.468;-2.586;2023-02-27T06:57:34;14.63;;;4.97;;
66966;SDS011;53900;51.468;-2.586;2023-02-27T06:59:59;14.23;;;4.70;;
66966;SDS011;53900;51.468;-2.586;2023-02-27T07:02:24;15.43;;;4.77;;
66966;SDS011;53900;51.468;-2.586;2023-02-27T07:04:50;10.60;;;4.73;;
66966;SDS011;53900;51.468;-2.586;2023-02-27T07:07:15;14.40;;;4.83;;
66966;SDS011;53900;51.468;-2.586;2023-02-27T07:09:41;8.20;;;4.53;;
66966;SDS011;53900;51.468;-2.586;2023-02-27T07:12:06;13.30;;;4.57;;
66966;SDS011;53900;51.468;-2.586;2023-02-27T07:14:32;13.60;;;4.17;;
66966;SDS011;53900;51.468;-2.586;2023-02-27T07:16:57;13.57;;;4.43;;
66966;SDS011;53900;51.468;-2.586;2023-02-27T07:19:23;12.43;;;4.87;;
66966;SDS011;53900;51.468;-2.586;2023-02-27T07:21:49;11.97;;;5.23;;
66966;SDS011;53900;51.468;-2.586;2023-02-27T07:24:14;19.13;;;5.60;;
66966;SDS011;53900;51.468;-2.586;2023-02-27T07:26:39;17.53;;;5.27;;
66966;SDS011;53900;51.468;-2.586;2023-02-27T07:29:04;11.27;;;4.77;;
66966;SDS011;53900;51.468;-2.586;2023-02-27T07:31:30;14.80;;;4.80;;
66966;SDS011;53900;51.468;-2.586;2023-02-27T07:33:55;14.63;;;4.90;;
66966;SDS011;53900;51.468;-2.586;2023-02-27T07:36:21;12.27;;;5.03;;
66966;SDS011;53900;51.468;-2.586;2023-02-27T07:38:46;13.70;;;5.20;;
66966;SDS011;53900;51.468;-2.586;2023-02-27T07:41:11;7.63;;;4.57;;
66966;SDS011;53900;51.468;-2.586;2023-02-27T07:43:36;9.57;;;4.37;;
66966;SDS011;53900;51.468;-2.586;2023-02-27T07:46:01;16.97;;;4.90;;
66966;SDS011;53900;51.468;-2.586;2023-02-27T07:48:30;12.83;;;5.00;;
66966;SDS011;53900;51.468;-2.586;2023-02-27T07:50:55;12.47;;;5.43;;
66966;SDS011;53900;51.468;-2.586;2023-02-27T07:53:20;8.77;;;5.03;;
66966;SDS011;53900;51.468;-2.586;2023-02-27T07:55:46;15.93;;;6.33;;
66966;SDS011;53900;51.468;-2.586;2023-02-27T07:58:11;12.03;;;5.10;;
66966;SDS011;53900;51.468;-2.586;2023-02-27T08:00:36;13.90;;;5.40;;
66966;SDS011;53900;51.468;-2.586;2023-02-27T08:03:02;16.20;;;5.63;;
66966;SDS011;53900;51.468;-2.586;2023-02-27T08:05:27;12.73;;;5.43;;
66966;SDS011;53900;51.468;-2.586;2023-02-27T08:07:52;13.50;;;5.18;;
66966;SDS011;53900;51.468;-2.586;2023-02-27T08:10:18;11.43;;;5.37;;
66966;SDS011;53900;51.468;-2.586;2023-02-27T08:12:43;12.57;;;5.93;;
66966;SDS011;53900;51.468;-2.586;2023-02-27T08:15:08;11.47;;;5.30;;
66966;SDS011;53900;51.468;-2.586;2023-02-27T08:17:34;16.17;;;6.20;;
66966;SDS011;53900;51.468;-2.586;2023-02-27T08:19:59;18.40;;;6.20;;
66966;SDS011;53900;51.468;-2.586;2023-02-27T08:22:24;8.67;;;5.53;;
66966;SDS011;53900;51.468;-2.586;2023-02-27T08:24:49;13.35;;;6.25;;
66966;SDS011;53900;51.468;-2.586;2023-02-27T08:27:15;14.07;;;5.85;;
66966;SDS011;53900;51.468;-2.586;2023-02-27T08:29:40;10.32;;;5.90;;
66966;SDS011;53900;51.468;-2.586;2023-02-27T08:32:07;14.70;;;6.25;;
66966;SDS011;53900;51.468;-2.586;2023-02-27T08:34:32;16.20;;;6.75;;
66966;SDS011;53900;51.468;-2.586;2023-02-27T08:36:57;14.93;;;6.50;;
66966;SDS011;53900;51.468;-2.586;2023-02-27T08:39:23;12.38;;;5.85;;
66966;SDS011;53900;51.468;-2.586;2023-02-27T08:41:48;15.52;;;5.93;;
66966;SDS011;53900;51.468;-2.586;2023-02-27T08:44:14;9.70;;;6.43;;
66966;SDS011;53900;51.468;-2.586;2023-02-27T08:46:39;16.00;;;6.68;;
66966;SDS011;53900;51.468;-2.586;2023-02-27T08:49:04;15.60;;;6.65;;
66966;SDS011;53900;51.468;-2.586;2023-02-27T08:51:30;13.98;;;7.53;;
66966;SDS011;53900;51.468;-2.586;2023-02-27T08:53:55;11.27;;;5.75;;
66966;SDS011;53900;51.468;-2.586;2023-02-27T08:56:23;11.27;;;5.70;;
66966;SDS011;53900;51.468;-2.586;2023-02-27T08:58:48;13.10;;;6.20;;
66966;SDS011;53900;51.468;-2.586;2023-02-27T09:01:13;12.20;;;5.88;;
66966;SDS011;53900;51.468;-2.586;2023-02-27T09:03:38;16.55;;;5.70;;
66966;SDS011;53900;51.468;-2.586;2023-02-27T09:06:04;14.95;;;6.25;;
66966;SDS011;53900;51.468;-2.586;2023-02-27T09:08:29;12.40;;;5.75;;
66966;SDS011;53900;51.468;-2.586;2023-02-27T09:10:55;13.30;;;5.72;;
66966;SDS011;53900;51.468;-2.586;2023-02-27T09:13:21;19.35;;;4.93;;
66966;SDS011;53900;51.468;-2.586;2023-02-27T09:15:46;13.30;;;5.80;;
66966;SDS011;53900;51.468;-2.586;2023-02-27T09:18:11;13.77;;;5.95;;
66966;SDS011;53900;51.468;-2.586;2023-02-27T09:20:37;11.35;;;6.15;;
66966;SDS011;53900;51.468;-2.586;2023-02-27T09:23:04;17.23;;;6.25;;
66966;SDS011;53900;51.468;-2.586;2023-02-27T09:25:29;10.70;;;6.07;;
66966;SDS011;53900;51.468;-2.586;2023-02-27T09:27:55;10.23;;;6.45;;
66966;SDS011;53900;51.468;-2.586;2023-02-27T09:30:20;10.63;;;6.25;;
66966;SDS011;53900;51.468;-2.586;2023-02-27T09:32:46;11.88;;;6.07;;
66966;SDS011;53900;51.468;-2.586;2023-02-27T09:35:11;10.77;;;5.80;;
66966;SDS011;53900;51.468;-2.586;2023-02-27T09:37:38;10.15;;;5.97;;
66966;SDS011;53900;51.468;-2.586;2023-02-27T09:40:04;10.40;;;5.70;;
66966;SDS011;53900;51.468;-2.586;2023-02-27T09:42:32;12.82;;;5.90;;
66966;SDS011;53900;51.468;-2.586;2023-02-27T09:45:02;9.10;;;5.22;;
66966;SDS011;53900;51.468;-2.586;2023-02-27T09:47:35;9.93;;;5.40;;
66966;SDS011;53900;51.468;-2.586;2023-02-27T09:52:34;10.88;;;5.63;;
66966;SDS011;53900;51.468;-2.586;2023-02-27T09:55:00;15.65;;;6.88;;
66966;SDS011;53900;51.468;-2.586;2023-02-27T09:57:31;11.02;;;5.55;;
66966;SDS011;53900;51.468;-2.586;2023-02-27T10:00:03;10.27;;;5.30;;
66966;SDS011;53900;51.468;-2.586;2023-02-27T10:05:31;13.00;;;5.80;;
66966;SDS011;53900;51.468;-2.586;2023-02-27T10:15:52;10.13;;;5.53;;
66966;SDS011;53900;51.468;-2.586;2023-02-27T10:20:50;14.80;;;5.25;;
66966;SDS011;53900;51.468;-2.586;2023-02-27T10:23:19;9.90;;;4.80;;
66966;SDS011;53900;51.468;-2.586;2023-02-27T10:25:46;9.68;;;5.20;;
66966;SDS011;53900;51.468;-2.586;2023-02-27T10:28:19;10.32;;;4.80;;
66966;SDS011;53900;51.468;-2.586;2023-02-27T10:30:55;7.05;;;4.45;;
66966;SDS011;53900;51.468;-2.586;2023-02-27T10:33:33;8.70;;;5.00;;
66966;SDS011;53900;51.468;-2.586;2023-02-27T10:35:59;10.95;;;5.00;;
66966;SDS011;53900;51.468;-2.586;2023-02-27T10:38:27;7.85;;;4.88;;
66966;SDS011;53900;51.468;-2.586;2023-02-27T10:40:54;8.63;;;5.20;;
66966;SDS011;53900;51.468;-2.586;2023-02-27T10:43:20;11.52;;;5.03;;
66966;SDS011;53900;51.468;-2.586;2023-02-27T10:45:46;8.68;;;5.93;;
66966;SDS011;53900;51.468;-2.586;2023-02-27T10:48:11;8.45;;;5.38;;
66966;SDS011;53900;51.468;-2.586;2023-02-27T10:50:39;13.07;;;6.07;;
66966;SDS011;53900;51.468;-2.586;2023-02-27T10:53:23;11.63;;;5.90;;
66966;SDS011;53900;51.468;-2.586;2023-02-27T10:56:12;10.52;;;5.40;;
66966;SDS011;53900;51.468;-2.586;2023-02-27T10:58:35;11.63;;;5.10;;
66966;SDS011;53900;51.468;-2.586;2023-02-27T11:01:02;9.00;;;4.78;;
66966;SDS011;53900;51.468;-2.586;2023-02-27T11:03:32;7.85;;;4.80;;
66966;SDS011;53900;51.468;-2.586;2023-02-27T11:05:59;11.30;;;4.63;;
66966;SDS011;53900;51.468;-2.586;2023-02-27T11:08:29;7.53;;;4.32;;
66966;SDS011;53900;51.468;-2.586;2023-02-27T11:10:58;13.10;;;4.75;;
66966;SDS011;53900;51.468;-2.586;2023-02-27T11:13:25;12.00;;;5.07;;
66966;SDS011;53900;51.468;-2.586;2023-02-27T11:18:29;7.40;;;5.05;;
66966;SDS011;53900;51.468;-2.586;2023-02-27T11:21:08;9.10;;;4.75;;
66966;SDS011;53900;51.468;-2.586;2023-02-27T11:23:33;8.40;;;4.85;;
66966;SDS011;53900;51.468;-2.586;2023-02-27T11:27:01;8.50;;;4.10;;
66966;SDS011;53900;51.468;-2.586;2023-02-27T11:31:43;8.68;;;4.15;;
66966;SDS011;53900;51.468;-2.586;2023-02-27T11:34:13;6.13;;;3.63;;
66966;SDS011;53900;51.468;-2.586;2023-02-27T11:36:40;7.72;;;4.13;;
66966;SDS011;53900;51.468;-2.586;2023-02-27T11:39:15;7.25;;;4.18;;
66966;SDS011;53900;51.468;-2.586;2023-02-27T11:41:44;6.55;;;4.10;;
66966;SDS011;53900;51.468;-2.586;2023-02-27T11:44:12;5.35;;;4.28;;
66966;SDS011;53900;51.468;-2.586;2023-02-27T11:46:41;10.10;;;3.83;;
66966;SDS011;53900;51.468;-2.586;2023-02-27T11:51:40;11.75;;;4.10;;
66966;SDS011;53900;51.468;-2.586;2023-02-27T11:54:12;8.70;;;3.55;;
66966;SDS011;53900;51.468;-2.586;2023-02-27T11:56:53;5.97;;;4.07;;
66966;SDS011;53900;51.468;-2.586;2023-02-27T11:59:21;5.60;;;3.58;;
66966;SDS011;53900;51.468;-2.586;2023-02-27T12:04:19;5.13;;;3.30;;
66966;SDS011;53900;51.468;-2.586;2023-02-27T12:06:47;14.25;;;4.18;;
66966;SDS011;53900;51.468;-2.586;2023-02-27T12:09:21;4.43;;;2.55;;
66966;SDS011;53900;51.468;-2.586;2023-02-27T12:11:48;8.75;;;3.17;;
66966;SDS011;53900;51.468;-2.586;2023-02-27T12:14:17;5.55;;;3.20;;
66966;SDS011;53900;51.468;-2.586;2023-02-27T12:16:47;6.78;;;3.53;;
66966;SDS011;53900;51.468;-2.586;2023-02-27T12:19:32;5.30;;;3.20;;
66966;SDS011;53900;51.468;-2.586;2023-02-27T12:22:03;7.60;;;3.75;;
66966;SDS011;53900;51.468;-2.586;2023-02-27T12:27:07;6.25;;;3.22;;
66966;SDS011;53900;51.468;-2.586;2023-02-27T12:29:45;5.13;;;3.35;;
66966;SDS011;53900;51.468;-2.586;2023-02-27T12:34:41;5.63;;;2.88;;
66966;SDS011;53900;51.468;-2.586;2023-02-27T12:37:12;5.68;;;2.65;;
66966;SDS011;53900;51.468;-2.586;2023-02-27T12:39:40;4.22;;;2.30;;
66966;SDS011;53900;51.468;-2.586;2023-02-27T12:44:40;4.47;;;2.45;;
66966;SDS011;53900;51.468;-2.586;2023-02-27T12:49:40;4.80;;;2.90;;
66966;SDS011;53900;51.468;-2.586;2023-02-27T12:54:38;4.00;;;3.08;;
66966;SDS011;53900;51.468;-2.586;2023-02-27T13:02:00;5.47;;;2.85;;
66966;SDS011;53900;51.468;-2.586;2023-02-27T13:04:43;3.65;;;2.33;;
66966;SDS011;53900;51.468;-2.586;2023-02-27T13:07:17;4.55;;;2.67;;
66966;SDS011;53900;51.468;-2.586;2023-02-27T13:09:47;4.25;;;2.75;;
66966;SDS011;53900;51.468;-2.586;2023-02-27T13:17:08;2.45;;;2.03;;
66966;SDS011;53900;51.468;-2.586;2023-02-27T13:19:36;4.45;;;1.83;;
66966;SDS011;53900;51.468;-2.586;2023-02-27T13:22:11;5.95;;;1.80;;
66966;SDS011;53900;51.468;-2.586;2023-02-27T13:24:40;3.28;;;1.55;;
66966;SDS011;53900;51.468;-2.586;2023-02-27T13:27:06;2.58;;;1.60;;
66966;SDS011;53900;51.468;-2.586;2023-02-27T13:29:39;7.10;;;1.60;;
66966;SDS011;53900;51.468;-2.586;2023-02-27T13:34:33;1.70;;;1.20;;
66966;SDS011;53900;51.468;-2.586;2023-02-27T13:37:05;1.80;;;1.15;;
66966;SDS011;53900;51.468;-2.586;2023-02-27T13:39:51;1.50;;;1.08;;
66966;SDS011;53900;51.468;-2.586;2023-02-27T13:44:52;2.42;;;1.58;;
66966;SDS011;53900;51.468;-2.586;2023-02-27T13:50:46;2.22;;;1.27;;
66966;SDS011;53900;51.468;-2.586;2023-02-27T13:52:49;1.98;;;1.42;;
66966;SDS011;53900;51.468;-2.586;2023-02-27T13:55:25;1.30;;;1.15;;
66966;SDS011;53900;51.468;-2.586;2023-02-27T13:57:50;2.15;;;1.30;;
66966;SDS011;53900;51.468;-2.586;2023-02-27T14:00:19;5.53;;;1.38;;
66966;SDS011;53900;51.468;-2.586;2023-02-27T14:02:55;4.03;;;1.85;;
66966;SDS011;53900;51.468;-2.586;2023-02-27T14:05:25;3.60;;;1.83;;
66966;SDS011;53900;51.468;-2.586;2023-02-27T14:07:53;3.35;;;1.58;;
66966;SDS011;53900;51.468;-2.586;2023-02-27T14:10:22;2.08;;;0.90;;
66966;SDS011;53900;51.468;-2.586;2023-02-27T14:12:48;1.95;;;0.90;;
66966;SDS011;53900;51.468;-2.586;2023-02-27T14:17:41;4.22;;;0.90;;
66966;SDS011;53900;51.468;-2.586;2023-02-27T14:30:03;2.40;;;1.60;;
66966;SDS011;53900;51.468;-2.586;2023-02-27T14:32:32;2.42;;;1.65;;
66966;SDS011;53900;51.468;-2.586;2023-02-27T14:34:58;2.08;;;1.58;;
66966;SDS011;53900;51.468;-2.586;2023-02-27T14:37:24;2.38;;;1.40;;
66966;SDS011;53900;51.468;-2.586;2023-02-27T14:39:51;4.32;;;1.67;;
66966;SDS011;53900;51.468;-2.586;2023-02-27T14:44:45;1.40;;;1.30;;
66966;SDS011;53900;51.468;-2.586;2023-02-27T14:47:17;1.70;;;1.42;;
66966;SDS011;53900;51.468;-2.586;2023-02-27T14:49:43;4.97;;;1.63;;
66966;SDS011;53900;51.468;-2.586;2023-02-27T14:52:15;2.72;;;1.15;;
66966;SDS011;53900;51.468;-2.586;2023-02-27T14:54:42;5.10;;;1.00;;
66966;SDS011;53900;51.468;-2.586;2023-02-27T14:57:13;3.10;;;1.25;;
66966;SDS011;53900;51.468;-2.586;2023-02-27T14:59:43;5.10;;;1.40;;
66966;SDS011;53900;51.468;-2.586;2023-02-27T15:04:34;3.72;;;1.77;;
66966;SDS011;53900;51.468;-2.586;2023-02-27T15:06:59;1.40;;;1.15;;
66966;SDS011;53900;51.468;-2.586;2023-02-27T15:09:36;3.13;;;1.52;;
66966;SDS011;53900;51.468;-2.586;2023-02-27T15:12:06;3.13;;;1.38;;
66966;SDS011;53900;51.468;-2.586;2023-02-27T15:14:33;3.55;;;1.20;;
66966;SDS011;53900;51.468;-2.586;2023-02-27T15:16:59;2.17;;;1.20;;
66966;SDS011;53900;51.468;-2.586;2023-02-27T15:19:28;3.78;;;1.00;;
66966;SDS011;53900;51.468;-2.586;2023-02-27T15:21:54;3.53;;;1.00;;
66966;SDS011;53900;51.468;-2.586;2023-02-27T15:26:46;5.70;;;1.55;;
66966;SDS011;53900;51.468;-2.586;2023-02-27T15:29:15;3.45;;;1.35;;
66966;SDS011;53900;51.468;-2.586;2023-02-27T15:31:44;3.20;;;1.20;;
66966;SDS011;53900;51.468;-2.586;2023-02-27T15:34:09;1.63;;;1.10;;
66966;SDS011;53900;51.468;-2.586;2023-02-27T15:36:44;3.80;;;1.30;;
66966;SDS011;53900;51.468;-2.586;2023-02-27T15:39:14;2.38;;;1.13;;
66966;SDS011;53900;51.468;-2.586;2023-02-27T15:42:02;3.35;;;1.30;;
66966;SDS011;53900;51.468;-2.586;2023-02-27T15:44:26;2.53;;;1.45;;
66966;SDS011;53900;51.468;-2.586;2023-02-27T15:46:53;1.73;;;1.23;;
66966;SDS011;53900;51.468;-2.586;2023-02-27T15:49:19;4.22;;;1.38;;
66966;SDS011;53900;51.468;-2.586;2023-02-27T15:51:45;3.58;;;1.58;;
66966;SDS011;53900;51.468;-2.586;2023-02-27T15:54:12;2.00;;;1.38;;
66966;SDS011;53900;51.468;-2.586;2023-02-27T15:56:37;3.75;;;1.83;;
66966;SDS011;53900;51.468;-2.586;2023-02-27T15:59:03;5.07;;;1.30;;
66966;SDS011;53900;51.468;-2.586;2023-02-27T16:01:31;2.53;;;1.30;;
66966;SDS011;53900;51.468;-2.586;2023-02-27T16:03:59;4.43;;;1.52;;
66966;SDS011;53900;51.468;-2.586;2023-02-27T16:06:29;2.58;;;1.40;;
66966;SDS011;53900;51.468;-2.586;2023-02-27T16:08:59;1.83;;;1.27;;
66966;SDS011;53900;51.468;-2.586;2023-02-27T16:11:28;1.50;;;1.20;;
66966;SDS011;53900;51.468;-2.586;2023-02-27T16:13:54;2.33;;;1.73;;
66966;SDS011;53900;51.468;-2.586;2023-02-27T16:16:27;2.70;;;1.20;;
66966;SDS011;53900;51.468;-2.586;2023-02-27T16:18:56;2.00;;;1.38;;
66966;SDS011;53900;51.468;-2.586;2023-02-27T16:21:23;3.42;;;1.00;;
66966;SDS011;53900;51.468;-2.586;2023-02-27T16:23:48;1.80;;;1.23;;
66966;SDS011;53900;51.468;-2.586;2023-02-27T16:29:27;1.40;;;1.10;;
66966;SDS011;53900;51.468;-2.586;2023-02-27T16:31:36;4.03;;;1.67;;
66966;SDS011;53900;51.468;-2.586;2023-02-27T16:34:11;2.53;;;1.13;;
66966;SDS011;53900;51.468;-2.586;2023-02-27T16:36:37;3.13;;;1.35;;
66966;SDS011;53900;51.468;-2.586;2023-02-27T16:39:03;2.03;;;1.10;;
66966;SDS011;53900;51.468;-2.586;2023-02-27T16:41:30;2.50;;;0.88;;
66966;SDS011;53900;51.468;-2.586;2023-02-27T16:43:56;1.92;;;0.88;;
66966;SDS011;53900;51.468;-2.586;2023-02-27T16:46:21;1.70;;;0.93;;
66966;SDS011;53900;51.468;-2.586;2023-02-27T16:48:48;1.95;;;1.00;;
66966;SDS011;53900;51.468;-2.586;2023-02-27T16:51:15;4.30;;;1.20;;
66966;SDS011;53900;51.468;-2.586;2023-02-27T16:53:41;3.15;;;1.13;;
66966;SDS011;53900;51.468;-2.586;2023-02-27T16:56:08;2.55;;;1.05;;